Crystal, Nevada
Current Conditions -  °F | °C
As of 4:52 PM on Monday 20 Oct 2014 (Local Time) from KDRA Reporting Station
Clear Clear  
Wind Chill: 81°   Ceiling: Unl
Heat Index: 81°   Visibility: 10mi
Dew Point: 36°   Wind: 15mph
Humidity: 20%   Direction: 220°SW
Pressure: 29.87"   Gusts: NA
Location:  36.2552°N, 116.039°W
Report Text: KDRA 202352Z AUTO 22013KT 10SM CLR 27/02 A2987 RMK AO2 PK WND 21026/2316 SLP075 T02720022 10294 20250 56011
Loading
Personal Weather Stations






























Interactive Weather Map New forecast layout! Learn more

10-Day Weather Forecast

Advertisements
Track Severe Weather on mobile